Hlavní strana
METAR-TAF:

METAR-TAF

Letiště :

Terst, Itálie

zeměpisná šířka: 45-39N, zeměpisná délka: 013-45E, výška: 8 m

Aktuální stav počasí

Zpráva byla vytvořena před 1 hodinou a 24 minutami, v 05:55 UTC
vítr z různých směrů 1 kt
Teplota 24°C
Vlhkost vzduchu 74%
Tlak 1015 hPa
Viditelnost 10 km a více
Žádná oblačnost pod 1500 m, nevyskytují se cumulonimby.

METAR: LIVT 190555Z VRB01KT CAVOK 24/19 Q1015 RMK OVC OVC140 QUK 1 QUL 0 VIS MAR 15 KM VIS MIN 9999

Čas: 09:19 (07:19 UTC)


TAF: chybějící

Stav a předpovědi počasí z více než 4 000 letišť (zprávy METAR a TAF).

Červené a žluté tečky na mapě představují dostupné meteorologické stanice.

Když kurzor umístíte na tečku, zobrazí se název stanice.

Pak kliknutím zobrazíte stav a předpověď počasí.

Chcete-li změnit mapu, kliknutím na zelené tlačítko se znaménkem +mapu přiblížíte, kliknutím na zelené tlačítko se znaménkem – mapu oddálíte a kliknutím na zelené šipky přejdete na sousední mapy.


METAR-TAF: